createdAt,value
2022-07-29T00:02:00.763Z,155573.53
2022-07-29T00:04:31.287Z,155566.97
2022-07-29T00:07:04.661Z,155566.97
2022-07-29T00:09:50.419Z,155568.31
2022-07-29T00:12:27.699Z,155553.97
2022-07-29T00:15:01.213Z,155546.09
2022-07-29T00:17:31.423Z,155552.69
2022-07-29T00:20:01.727Z,155551.34
2022-07-29T00:22:32.365Z,155553.97
2022-07-29T00:25:03.192Z,155568.31
2022-07-29T00:27:36.626Z,155577.44
2022-07-29T00:30:08.202Z,155577.44
2022-07-29T00:32:38.866Z,155564.41
2022-07-29T00:35:22.973Z,155550.06
2022-07-29T00:37:53.612Z,155543.50
2022-07-29T00:40:24.014Z,155539.59
2022-07-29T00:42:57.299Z,155529.16
2022-07-29T00:45:33.976Z,155520.03
2022-07-29T00:48:05.773Z,155530.44
2022-07-29T00:50:36.584Z,155540.88
2022-07-29T00:53:08.333Z,155570.91
2022-07-29T00:55:39.557Z,155553.97
2022-07-29T00:58:13.205Z,155574.81
2022-07-29T01:00:50.704Z,155576.09
2022-07-29T01:03:20.988Z,155565.69
2022-07-29T01:05:52.005Z,155543.50
2022-07-29T01:08:24.213Z,155531.75
2022-07-29T01:10:55.975Z,155522.66
2022-07-29T01:13:30.922Z,155506.97
2022-07-29T01:16:07.895Z,155503.09
2022-07-29T01:18:42.163Z,155486.13
2022-07-29T01:21:39.838Z,155486.13
2022-07-29T01:24:27.836Z,155482.22
2022-07-29T01:27:03.740Z,155471.81
2022-07-29T01:29:41.144Z,155466.59
2022-07-29T01:32:27.753Z,155482.22
2022-07-29T01:35:04.980Z,155503.09
2022-07-29T01:37:42.775Z,155475.72
2022-07-29T01:40:23.863Z,155457.47
2022-07-29T01:42:58.836Z,155448.38
2022-07-29T01:45:42.598Z,155444.47
2022-07-29T01:48:19.539Z,155439.25
2022-07-29T01:50:53.604Z,155435.31
2022-07-29T01:53:38.355Z,155424.91
2022-07-29T01:56:10.764Z,155462.72
2022-07-29T01:58:45.205Z,155491.34
2022-07-29T02:01:20.587Z,155477.00
2022-07-29T02:03:52.051Z,155466.59
2022-07-29T02:06:25.160Z,155462.72
2022-07-29T02:08:58.014Z,155457.47
2022-07-29T02:11:28.731Z,155461.38
2022-07-29T02:14:02.460Z,155450.97
2022-07-29T02:16:37.584Z,155453.59
2022-07-29T02:19:10.598Z,155434.03
2022-07-29T02:21:42.111Z,155434.03
2022-07-29T02:24:15.994Z,155424.91
2022-07-29T02:26:48.793Z,155430.13
2022-07-29T02:29:21.084Z,155447.03
2022-07-29T02:31:56.176Z,155439.25
2022-07-29T02:34:27.622Z,155434.03
2022-07-29T02:37:00.112Z,155449.66
2022-07-29T02:39:32.669Z,155450.97
2022-07-29T02:42:07.347Z,155440.53
2022-07-29T02:44:39.041Z,155421.00
2022-07-29T02:47:20.558Z,155449.66
2022-07-29T02:49:57.958Z,155454.88
2022-07-29T02:52:35.881Z,155461.38
2022-07-29T02:55:15.345Z,155452.25
2022-07-29T02:57:54.944Z,155452.25
2022-07-29T03:00:28.160Z,155456.16
2022-07-29T03:03:03.794Z,155450.97
2022-07-29T03:05:36.313Z,155431.41
2022-07-29T03:08:10.232Z,155430.13
2022-07-29T03:10:41.737Z,155406.66
2022-07-29T03:13:13.679Z,155405.38
2022-07-29T03:15:46.436Z,155405.38
2022-07-29T03:18:19.880Z,155423.63
2022-07-29T03:20:50.260Z,155421.00
2022-07-29T03:23:24.967Z,155405.38
2022-07-29T03:25:55.992Z,155389.75
2022-07-29T03:28:28.420Z,155387.13
2022-07-29T03:30:59.353Z,155376.69
2022-07-29T03:33:32.767Z,155368.91
2022-07-29T03:36:03.591Z,155375.41
2022-07-29T03:38:38.453Z,155359.78
2022-07-29T03:41:13.544Z,155366.28
2022-07-29T03:43:49.697Z,155394.94
2022-07-29T03:46:22.334Z,155368.91
2022-07-29T03:49:02.677Z,155359.78
2022-07-29T03:51:34.632Z,155342.81
2022-07-29T03:54:09.941Z,155335.03
2022-07-29T03:56:44.521Z,155320.63
2022-07-29T03:59:15.672Z,155325.84
2022-07-29T04:01:47.797Z,155319.34
2022-07-29T04:04:22.096Z,155333.75
2022-07-29T04:06:52.672Z,155331.09
2022-07-29T04:09:23.418Z,155344.16
2022-07-29T04:12:01.930Z,155350.66
2022-07-29T04:14:35.900Z,155355.88
2022-07-29T04:17:08.181Z,155374.13
2022-07-29T04:19:41.517Z,155371.47
2022-07-29T04:22:14.252Z,155387.13
2022-07-29T04:24:44.824Z,155410.56
2022-07-29T04:27:15.289Z,155435.31
2022-07-29T04:29:57.138Z,155444.47
2022-07-29T04:32:28.620Z,155475.72
2022-07-29T04:35:01.804Z,155518.75
2022-07-29T04:37:32.526Z,155529.16
2022-07-29T04:40:21.008Z,155566.97
2022-07-29T04:42:52.825Z,155574.81
2022-07-29T04:45:26.633Z,155593.09
2022-07-29T04:47:57.396Z,155623.06
2022-07-29T04:50:31.456Z,155658.25
2022-07-29T04:53:03.490Z,155659.53
2022-07-29T04:55:34.162Z,155701.25
2022-07-29T04:58:04.989Z,155680.38
2022-07-29T05:00:38.887Z,155716.94
2022-07-29T05:03:13.981Z,155752.13
2022-07-29T05:05:48.390Z,155812.16
2022-07-29T05:08:19.314Z,155805.59
2022-07-29T05:10:50.246Z,155819.97
2022-07-29T05:13:20.960Z,155843.44
2022-07-29T05:15:53.185Z,155838.22
2022-07-29T05:18:26.095Z,155911.28
2022-07-29T05:21:00.407Z,155939.94
2022-07-29T05:23:31.367Z,156015.66
2022-07-29T05:26:03.286Z,156061.34
2022-07-29T05:28:37.377Z,156093.94
2022-07-29T05:31:08.765Z,156123.97
2022-07-29T05:33:40.135Z,156185.34
2022-07-29T05:36:17.896Z,156187.97
2022-07-29T05:38:48.850Z,156177.53
2022-07-29T05:41:19.727Z,156285.91
2022-07-29T05:43:50.621Z,156325.06
2022-07-29T05:46:21.537Z,156321.13
2022-07-29T05:48:57.956Z,156370.81
2022-07-29T05:51:32.090Z,156284.56
2022-07-29T05:54:03.075Z,156403.44
2022-07-29T05:56:34.165Z,156440.03
2022-07-29T05:59:04.758Z,156543.19
2022-07-29T06:01:49.000Z,156592.88
2022-07-29T06:04:19.994Z,156594.16
2022-07-29T06:06:53.101Z,156600.72
2022-07-29T06:09:24.044Z,156664.75
2022-07-29T06:11:54.237Z,156586.34
2022-07-29T06:14:24.362Z,156632.06
2022-07-29T06:16:54.506Z,156714.34
2022-07-29T06:19:24.814Z,156809.84
2022-07-29T06:21:58.005Z,156817.66
2022-07-29T06:24:28.260Z,156812.44
2022-07-29T06:26:58.897Z,156852.97
2022-07-29T06:29:29.081Z,156926.22
2022-07-29T06:31:59.362Z,156991.59
2022-07-29T06:34:29.572Z,157126.34
2022-07-29T06:37:03.979Z,157169.53
2022-07-29T06:39:34.281Z,157070.06
2022-07-29T06:42:04.781Z,157196.97
2022-07-29T06:44:35.357Z,157262.41
2022-07-29T06:47:06.340Z,157337.00
2022-07-29T06:49:36.872Z,157211.34
2022-07-29T06:52:09.644Z,157283.34
2022-07-29T06:54:40.997Z,157414.28
2022-07-29T06:57:11.191Z,157546.47
2022-07-29T06:59:41.370Z,157600.19
2022-07-29T07:02:12.100Z,157621.13
2022-07-29T07:04:42.322Z,157670.88
2022-07-29T07:07:15.003Z,157577.91
2022-07-29T07:09:45.154Z,157484.94
2022-07-29T07:12:15.568Z,157399.84
2022-07-29T07:14:45.769Z,157458.72
2022-07-29T07:17:15.964Z,157467.91
2022-07-29T07:19:46.246Z,157515.06
2022-07-29T07:22:19.041Z,157660.41
2022-07-29T07:24:49.178Z,157758.63
2022-07-29T07:27:19.420Z,157673.47
2022-07-29T07:29:49.594Z,157765.22
2022-07-29T07:32:20.684Z,157816.28
2022-07-29T07:34:50.955Z,157799.22
2022-07-29T07:37:23.673Z,157655.19
2022-07-29T07:39:53.761Z,157822.81
2022-07-29T07:42:23.944Z,157728.53
2022-07-29T07:45:12.580Z,157690.53
2022-07-29T07:47:44.072Z,157864.75
2022-07-29T07:50:18.862Z,157830.69
2022-07-29T07:52:58.844Z,157994.47
2022-07-29T07:55:42.417Z,157981.41
2022-07-29T07:58:19.976Z,157999.75
2022-07-29T08:00:50.690Z,157905.41
2022-07-29T08:03:20.959Z,157951.25
2022-07-29T08:05:52.151Z,158077.09
2022-07-29T08:08:25.139Z,157925.06
2022-07-29T08:11:02.276Z,158063.97
2022-07-29T08:13:35.706Z,158078.38
2022-07-29T08:16:12.744Z,158023.31
2022-07-29T08:18:44.190Z,158027.28
2022-07-29T08:21:14.905Z,158208.19
2022-07-29T08:24:00.655Z,158234.38
2022-07-29T08:26:33.056Z,158227.84
2022-07-29T08:29:03.626Z,158272.41
2022-07-29T08:31:35.074Z,158212.13
2022-07-29T08:34:05.511Z,158322.28
2022-07-29T08:36:35.819Z,158269.78
2022-07-29T08:39:08.754Z,158263.25
2022-07-29T08:41:39.481Z,158323.59
2022-07-29T08:44:09.780Z,158265.88
2022-07-29T08:46:42.408Z,158410.09
2022-07-29T08:49:12.746Z,158411.47
2022-07-29T08:51:49.228Z,158449.47
2022-07-29T08:54:27.796Z,158423.25
2022-07-29T08:56:59.773Z,158420.66
2022-07-29T08:59:34.505Z,158450.81
2022-07-29T09:02:06.865Z,158470.47
2022-07-29T09:04:39.891Z,158508.53
2022-07-29T09:07:10.586Z,158488.84
2022-07-29T09:09:43.846Z,158486.25
2022-07-29T09:12:27.813Z,158498.03
2022-07-29T09:14:59.784Z,158521.66
2022-07-29T09:17:46.490Z,158453.41
2022-07-29T09:20:19.737Z,158481.00
2022-07-29T09:22:52.007Z,158588.53
2022-07-29T09:25:41.319Z,158683.03
2022-07-29T09:28:12.708Z,158727.66
2022-07-29T09:30:55.246Z,158756.56
2022-07-29T09:33:26.519Z,158788.06
2022-07-29T09:36:08.246Z,158806.41
2022-07-29T09:38:39.158Z,158799.84
2022-07-29T09:41:11.941Z,158725.00
2022-07-29T09:43:43.647Z,158793.31
2022-07-29T09:46:15.809Z,158858.91
2022-07-29T09:48:46.195Z,158826.06
2022-07-29T09:51:38.309Z,158799.84
2022-07-29T09:54:26.860Z,158780.16
2022-07-29T09:56:59.839Z,158830.03
2022-07-29T09:59:30.633Z,158882.59
2022-07-29T10:02:01.127Z,158866.75
2022-07-29T10:04:42.913Z,158845.75
2022-07-29T10:07:13.424Z,158790.66
2022-07-29T10:09:53.457Z,158852.38
2022-07-29T10:12:26.848Z,158990.19
2022-07-29T10:14:57.273Z,159042.78
2022-07-29T10:17:27.498Z,159076.88
2022-07-29T10:19:57.932Z,158911.44
2022-07-29T10:22:52.059Z,158906.19
2022-07-29T10:25:19.954Z,158986.25
2022-07-29T10:27:53.539Z,159017.84
2022-07-29T10:30:25.496Z,159054.56
2022-07-29T10:33:29.737Z,158743.44
2022-07-29T10:36:16.298Z,158698.78
2022-07-29T10:38:52.730Z,158840.53
2022-07-29T10:41:44.292Z,159057.19
2022-07-29T10:44:23.129Z,159184.59
2022-07-29T10:46:55.250Z,159072.97
2022-07-29T10:49:30.285Z,159042.78
2022-07-29T10:52:05.833Z,158996.75
2022-07-29T10:54:51.672Z,158911.44
2022-07-29T10:57:54.080Z,158797.25
2022-07-29T11:00:35.088Z,159037.53
2022-07-29T11:03:10.559Z,159055.88
2022-07-29T11:06:02.981Z,159045.38
2022-07-29T11:08:39.191Z,159139.97
2022-07-29T11:11:44.002Z,159083.47
2022-07-29T11:14:26.454Z,159214.81
2022-07-29T11:17:09.135Z,159224.00
2022-07-29T11:19:45.695Z,159258.09
2022-07-29T11:22:45.993Z,159170.16
2022-07-29T11:25:18.428Z,159195.09
2022-07-29T11:27:49.126Z,159231.84
2022-07-29T11:30:19.473Z,159242.34
2022-07-29T11:33:01.154Z,159268.72
2022-07-29T11:35:38.101Z,159281.81
2022-07-29T11:38:29.209Z,159335.69
2022-07-29T11:41:27.205Z,159343.56
2022-07-29T11:43:59.333Z,159315.97
2022-07-29T11:46:50.641Z,159375.09
2022-07-29T11:49:32.102Z,159393.44
2022-07-29T11:52:05.526Z,159276.56
2022-07-29T11:54:57.459Z,159112.31
2022-07-29T11:57:36.106Z,159348.81
2022-07-29T12:00:12.497Z,159357.97
2022-07-29T12:02:48.145Z,159330.44
2022-07-29T12:05:36.483Z,159350.13
2022-07-29T12:08:12.734Z,159338.28
2022-07-29T12:10:47.233Z,159381.63
2022-07-29T12:13:19.609Z,159371.13
2022-07-29T12:16:00.071Z,159181.97
2022-07-29T12:18:30.774Z,159325.16
2022-07-29T12:21:05.338Z,159368.47
2022-07-29T12:23:36.130Z,159404.03
2022-07-29T12:26:10.908Z,159404.03
2022-07-29T12:28:42.193Z,159386.88
2022-07-29T12:31:43.517Z,159414.53
2022-07-29T12:34:08.846Z,159348.81
2022-07-29T12:36:42.990Z,159507.78
2022-07-29T12:39:15.757Z,159555.16
2022-07-29T12:41:47.152Z,159488.09
2022-07-29T12:44:17.411Z,159464.47
2022-07-29T12:46:49.488Z,159287.06
2022-07-29T12:49:25.677Z,159355.38
2022-07-29T12:51:58.990Z,159419.81
2022-07-29T12:54:29.820Z,159372.44
2022-07-29T12:57:05.325Z,159293.66
2022-07-29T12:59:36.221Z,159147.88
2022-07-29T13:02:08.723Z,159091.31
2022-07-29T13:04:39.313Z,159108.41
2022-07-29T13:07:13.092Z,159193.81
2022-07-29T13:09:47.139Z,159147.88
2022-07-29T13:12:18.040Z,159174.09
2022-07-29T13:14:50.451Z,159258.09
2022-07-29T13:17:24.107Z,159145.22
2022-07-29T13:19:55.929Z,159298.91
2022-07-29T13:22:30.444Z,159329.13
2022-07-29T13:25:03.054Z,159251.56
2022-07-29T13:27:33.680Z,159174.09
2022-07-29T13:30:05.482Z,159309.41
2022-07-29T13:32:37.478Z,159389.53
2022-07-29T13:35:10.351Z,159393.44
2022-07-29T13:37:43.771Z,159502.53
2022-07-29T13:40:15.340Z,159404.03
2022-07-29T13:42:46.108Z,159217.41
2022-07-29T13:45:22.983Z,159371.13
2022-07-29T13:47:53.354Z,159407.94
2022-07-29T13:50:23.705Z,159326.47
2022-07-29T13:52:56.551Z,159404.03
2022-07-29T13:55:26.896Z,159187.22
2022-07-29T13:57:57.132Z,159104.47
2022-07-29T14:00:27.598Z,159080.81
2022-07-29T14:02:57.849Z,158939.00
2022-07-29T14:05:28.094Z,158920.63
2022-07-29T14:08:03.580Z,158897.03
2022-07-29T14:10:33.746Z,158950.81
2022-07-29T14:13:04.085Z,159040.13
2022-07-29T14:15:39.301Z,159066.38
2022-07-29T14:18:09.754Z,159055.88
2022-07-29T14:20:40.472Z,159125.47
2022-07-29T14:23:16.222Z,159147.88
2022-07-29T14:25:50.206Z,159101.81
2022-07-29T14:28:20.851Z,159159.66
2022-07-29T14:30:51.543Z,159101.81
2022-07-29T14:33:22.931Z,159167.50
2022-07-29T14:35:53.593Z,159132.00
2022-07-29T14:38:27.966Z,159150.47
2022-07-29T14:40:58.688Z,159200.34
2022-07-29T14:43:29.415Z,159189.84
2022-07-29T14:46:04.026Z,159214.81
2022-07-29T14:48:36.407Z,159200.34
2022-07-29T14:51:07.277Z,159222.66
2022-07-29T14:53:40.861Z,159093.97
2022-07-29T14:56:35.582Z,159137.25
2022-07-29T14:59:01.924Z,159141.25
2022-07-29T15:01:32.115Z,159090.00
2022-07-29T15:04:02.311Z,159117.56
2022-07-29T15:06:32.469Z,159024.38
2022-07-29T15:09:05.311Z,159011.25
2022-07-29T15:11:38.744Z,158967.91
2022-07-29T15:17:44.884Z,158961.31
2022-07-29T15:20:15.629Z,158958.72
2022-07-29T15:22:45.838Z,158904.88
2022-07-29T15:25:18.616Z,158903.59
2022-07-29T15:27:52.343Z,158907.53
2022-07-29T15:30:31.472Z,158919.31
2022-07-29T15:33:04.878Z,158869.41
2022-07-29T15:35:40.505Z,158831.31
2022-07-29T15:38:11.580Z,158916.69
2022-07-29T15:40:45.575Z,158936.38
2022-07-29T15:43:15.786Z,158920.63
2022-07-29T15:46:09.555Z,158950.81
2022-07-29T15:48:42.098Z,158833.97
2022-07-29T15:51:12.005Z,158788.06
2022-07-29T15:53:42.614Z,158823.47
2022-07-29T15:56:15.447Z,158844.47
2022-07-29T15:58:46.728Z,158864.16
2022-07-29T16:01:17.702Z,158870.69
2022-07-29T16:03:47.996Z,158836.56
2022-07-29T16:06:18.338Z,158805.09
2022-07-29T16:08:49.147Z,158764.41
2022-07-29T16:11:21.904Z,158803.78
2022-07-29T16:13:53.726Z,158778.88
2022-07-29T16:16:23.901Z,158809.03
2022-07-29T16:18:54.279Z,158809.03
2022-07-29T16:21:25.188Z,158767.06
2022-07-29T16:23:55.750Z,158807.75
2022-07-29T16:26:28.754Z,158802.50
2022-07-29T16:29:00.075Z,158806.41
2022-07-29T16:31:30.909Z,158777.56
2022-07-29T16:34:01.084Z,158730.25
2022-07-29T16:36:31.305Z,158697.47
2022-07-29T16:39:02.029Z,158697.47
2022-07-29T16:41:35.019Z,158659.41
2022-07-29T16:44:05.455Z,158601.72
2022-07-29T16:46:37.867Z,158576.75
2022-07-29T16:49:10.446Z,158583.28
2022-07-29T16:51:40.749Z,158554.41
2022-07-29T16:54:11.600Z,158550.47
2022-07-29T16:56:44.408Z,158532.16
2022-07-29T16:59:14.681Z,158534.75
2022-07-29T17:01:44.901Z,158491.50
2022-07-29T17:04:15.262Z,158471.81
2022-07-29T17:06:45.585Z,158458.66
2022-07-29T17:09:19.526Z,158419.28
2022-07-29T17:11:55.023Z,158411.47
2022-07-29T17:14:27.436Z,158400.97
2022-07-29T17:17:01.208Z,158393.09
2022-07-29T17:19:33.861Z,158369.47
2022-07-29T17:22:13.104Z,158336.72
2022-07-29T17:24:49.140Z,158315.69
2022-07-29T17:27:22.127Z,158284.19
2022-07-29T17:29:52.283Z,158269.78
2022-07-29T17:32:22.454Z,158229.16
2022-07-29T17:34:52.824Z,158240.97
2022-07-29T17:37:23.112Z,158181.97
2022-07-29T17:39:56.210Z,158150.50
2022-07-29T17:42:31.329Z,158129.47
2022-07-29T17:45:01.092Z,158120.34
2022-07-29T17:47:31.222Z,158066.59
2022-07-29T17:50:01.429Z,158050.88
2022-07-29T17:52:31.577Z,158050.88
2022-07-29T17:55:02.690Z,158015.47
2022-07-29T17:57:35.377Z,157938.16
2022-07-29T18:00:08.415Z,157909.31
2022-07-29T18:02:41.819Z,157875.28
2022-07-29T18:05:12.354Z,157822.81
2022-07-29T18:07:42.503Z,157805.81
2022-07-29T18:10:13.150Z,157745.56
2022-07-29T18:12:45.913Z,157729.88
2022-07-29T18:15:15.945Z,157714.06
2022-07-29T18:17:56.604Z,157687.88
2022-07-29T18:20:28.197Z,157663.00
2022-07-29T18:22:58.595Z,157631.59
2022-07-29T18:25:30.141Z,157594.97
2022-07-29T18:28:02.897Z,157571.38
2022-07-29T18:30:34.066Z,157529.47
2022-07-29T18:33:21.697Z,157495.41
2022-07-29T18:36:11.109Z,157470.53
2022-07-29T18:38:43.009Z,157446.97
2022-07-29T18:41:13.155Z,157426.03
2022-07-29T18:43:45.997Z,157409.00
2022-07-29T18:46:17.244Z,157411.63
2022-07-29T18:48:48.942Z,157382.78
2022-07-29T18:51:19.308Z,157357.94
2022-07-29T18:53:49.422Z,157314.78
2022-07-29T18:56:19.621Z,157287.28
2022-07-29T18:58:52.610Z,157267.66
2022-07-29T19:01:23.139Z,157254.59
2022-07-29T19:04:01.885Z,157238.81
2022-07-29T19:06:32.269Z,157220.53
2022-07-29T19:09:02.655Z,157203.50
2022-07-29T19:11:33.103Z,157187.78
2022-07-29T19:14:06.472Z,157162.94
2022-07-29T19:16:36.947Z,157148.56
2022-07-29T19:19:07.650Z,157134.22
2022-07-29T19:21:37.771Z,157121.09
2022-07-29T19:24:15.278Z,157100.19
2022-07-29T19:26:46.941Z,157100.19
2022-07-29T19:29:20.687Z,157091.03
2022-07-29T19:31:51.215Z,157081.88
2022-07-29T19:34:21.825Z,157079.28
2022-07-29T19:36:52.530Z,157053.03
2022-07-29T19:39:31.965Z,157059.63
2022-07-29T19:42:06.802Z,157036.06
2022-07-29T19:44:40.645Z,157042.59
2022-07-29T19:47:17.334Z,157040.00
2022-07-29T19:49:48.058Z,157046.50
2022-07-29T19:52:18.525Z,157036.06
2022-07-29T19:54:49.529Z,157016.44
2022-07-29T19:57:20.045Z,157004.69
2022-07-29T19:59:53.734Z,157008.56
2022-07-29T20:02:24.448Z,157006.00
2022-07-29T20:04:54.993Z,157015.16
2022-07-29T20:07:25.579Z,156999.47
2022-07-29T20:09:57.154Z,156995.53
2022-07-29T20:12:27.626Z,156982.44
2022-07-29T20:15:00.774Z,157008.56
2022-07-29T20:17:31.175Z,156999.47
2022-07-29T20:20:02.792Z,157075.34
2022-07-29T20:22:33.567Z,157083.16
2022-07-29T20:25:04.331Z,157108.00
2022-07-29T20:27:37.066Z,157110.66
2022-07-29T20:30:13.618Z,157143.31
2022-07-29T20:32:44.938Z,157149.91
2022-07-29T20:35:15.683Z,157155.13
2022-07-29T20:37:52.281Z,157170.81
2022-07-29T20:40:26.822Z,157145.97
2022-07-29T20:42:57.856Z,157125.03
2022-07-29T20:45:34.770Z,157111.94
2022-07-29T20:48:05.635Z,157093.63
2022-07-29T20:50:38.933Z,157087.09
2022-07-29T20:53:09.515Z,157083.16
2022-07-29T20:55:40.073Z,157063.50
2022-07-29T20:58:10.592Z,157063.50
2022-07-29T21:00:46.167Z,157038.66
2022-07-29T21:03:18.661Z,157046.50
2022-07-29T21:05:49.161Z,157047.81
2022-07-29T21:08:19.713Z,157049.09
2022-07-29T21:10:50.536Z,157047.81
2022-07-29T21:13:22.844Z,157063.50
2022-07-29T21:16:02.011Z,157033.41
2022-07-29T21:18:37.806Z,157036.06
2022-07-29T21:21:08.984Z,157020.38
2022-07-29T21:23:39.738Z,157025.59
2022-07-29T21:26:13.869Z,156985.06
2022-07-29T21:28:41.546Z,156990.31
2022-07-29T21:31:17.170Z,156965.47
2022-07-29T21:33:49.795Z,156958.88
2022-07-29T21:36:47.217Z,156930.16
2022-07-29T21:39:12.320Z,156931.47
2022-07-29T21:41:43.499Z,156919.72
2022-07-29T21:44:14.193Z,156901.34
2022-07-29T21:46:47.990Z,156890.88
2022-07-29T21:49:18.763Z,156900.03
2022-07-29T21:51:49.242Z,156872.56
2022-07-29T21:54:21.192Z,156864.75
2022-07-29T21:56:52.664Z,156841.22
2022-07-29T21:59:23.358Z,156834.69
2022-07-29T22:01:56.904Z,156817.66
2022-07-29T22:04:27.435Z,156800.69
2022-07-29T22:06:58.527Z,156773.22
2022-07-29T22:09:29.837Z,156771.94
2022-07-29T22:12:00.400Z,156773.22
2022-07-29T22:14:30.854Z,156779.78
2022-07-29T22:17:04.317Z,156757.56
2022-07-29T22:19:35.042Z,156760.19
2022-07-29T22:22:05.900Z,156760.19
2022-07-29T22:24:36.881Z,156749.75
2022-07-29T22:27:07.524Z,156726.16
2022-07-29T22:29:37.688Z,156702.63
2022-07-29T22:32:11.418Z,156686.94
2022-07-29T22:34:41.870Z,156675.19
2022-07-29T22:37:12.241Z,156667.34
2022-07-29T22:39:42.683Z,156642.50
2022-07-29T22:42:13.079Z,156645.16
2022-07-29T22:44:43.688Z,156573.28
2022-07-29T22:47:17.011Z,156534.03
2022-07-29T22:49:47.499Z,156515.78
2022-07-29T22:52:17.724Z,156493.53
2022-07-29T22:54:48.003Z,156471.34
2022-07-29T22:57:18.502Z,156437.41
2022-07-29T22:59:48.827Z,156426.94
2022-07-29T23:02:22.149Z,156423.03
2022-07-29T23:04:52.821Z,156436.09
2022-07-29T23:07:23.423Z,156407.34
2022-07-29T23:09:53.945Z,156407.34
2022-07-29T23:12:24.268Z,156412.56
2022-07-29T23:14:54.632Z,156416.50
2022-07-29T23:17:27.701Z,156407.34
2022-07-29T23:19:58.095Z,156378.63
2022-07-29T23:22:28.542Z,156378.63
2022-07-29T23:24:59.174Z,156364.25
2022-07-29T23:27:29.573Z,156365.59
2022-07-29T23:29:59.936Z,156361.66
2022-07-29T23:32:33.581Z,156370.81
2022-07-29T23:35:05.468Z,156349.81
2022-07-29T23:37:35.708Z,156334.16
2022-07-29T23:40:08.679Z,156336.81
2022-07-29T23:42:42.355Z,156326.38
2022-07-29T23:45:17.394Z,156319.81
2022-07-29T23:47:50.595Z,156340.72
2022-07-29T23:50:20.949Z,156338.09
2022-07-29T23:52:51.852Z,156300.25
2022-07-29T23:55:37.546Z,156291.13
2022-07-29T23:58:09.474Z,156274.13
